Terminal Aerodrome Forecast
Issued by NWS

Home | Current Version | Previous Version | Graphics & Text | Print | Product List | Glossary On
Versions: 1 2 3 4 5 6 7 8 9 10 11 12 13 14 15 16 17 18 19
000
FTUS43 KABR 130500
TAFATY
TAF
KATY 130532Z 1306/1406 36017G27KT P6SM BKN015 OVC035
     FM130900 36019G25KT P6SM OVC007
     FM131200 36023G30KT P6SM OVC015
     FM131800 36025G35KT P6SM SCT025 BKN100
     FM140300 36016KT P6SM SCT250=

USA.gov is the U.S. government's official web portal to all federal, state and local government web resources and services.